sensor_id;sensor_type;location;lat;lon;timestamp;P1;durP1;ratioP1;P2;durP2;ratioP2
13704;SDS011;6924;52.122;9.952;2023-02-16T00:00:51;13.10;;;11.27;;
13704;SDS011;6924;52.122;9.952;2023-02-16T00:03:19;15.40;;;11.33;;
13704;SDS011;6924;52.122;9.952;2023-02-16T00:05:47;18.93;;;12.23;;
13704;SDS011;6924;52.122;9.952;2023-02-16T00:08:14;15.13;;;12.07;;
13704;SDS011;6924;52.122;9.952;2023-02-16T00:10:42;16.80;;;11.87;;
13704;SDS011;6924;52.122;9.952;2023-02-16T00:13:30;16.43;;;11.70;;
13704;SDS011;6924;52.122;9.952;2023-02-16T00:16:17;18.27;;;12.50;;
13704;SDS011;6924;52.122;9.952;2023-02-16T00:18:45;18.10;;;11.97;;
13704;SDS011;6924;52.122;9.952;2023-02-16T00:21:12;17.57;;;12.87;;
13704;SDS011;6924;52.122;9.952;2023-02-16T00:23:39;16.43;;;12.30;;
13704;SDS011;6924;52.122;9.952;2023-02-16T00:26:11;20.03;;;12.87;;
13704;SDS011;6924;52.122;9.952;2023-02-16T00:28:40;18.03;;;12.20;;
13704;SDS011;6924;52.122;9.952;2023-02-16T00:31:09;16.17;;;12.30;;
13704;SDS011;6924;52.122;9.952;2023-02-16T00:33:40;18.47;;;12.53;;
13704;SDS011;6924;52.122;9.952;2023-02-16T00:36:07;18.67;;;12.70;;
13704;SDS011;6924;52.122;9.952;2023-02-16T00:38:33;21.07;;;13.13;;
13704;SDS011;6924;52.122;9.952;2023-02-16T00:41:00;22.27;;;12.97;;
13704;SDS011;6924;52.122;9.952;2023-02-16T00:43:28;15.00;;;12.27;;
13704;SDS011;6924;52.122;9.952;2023-02-16T00:45:55;17.17;;;13.13;;
13704;SDS011;6924;52.122;9.952;2023-02-16T00:48:22;17.13;;;12.60;;
13704;SDS011;6924;52.122;9.952;2023-02-16T00:50:49;22.80;;;14.97;;
13704;SDS011;6924;52.122;9.952;2023-02-16T00:53:15;20.20;;;13.67;;
13704;SDS011;6924;52.122;9.952;2023-02-16T00:55:42;17.67;;;12.83;;
13704;SDS011;6924;52.122;9.952;2023-02-16T00:58:12;22.07;;;12.87;;
13704;SDS011;6924;52.122;9.952;2023-02-16T01:00:47;24.25;;;17.92;;
13704;SDS011;6924;52.122;9.952;2023-02-16T01:03:18;21.53;;;14.70;;
13704;SDS011;6924;52.122;9.952;2023-02-16T01:05:48;23.30;;;14.13;;
13704;SDS011;6924;52.122;9.952;2023-02-16T01:08:34;24.00;;;14.10;;
13704;SDS011;6924;52.122;9.952;2023-02-16T01:11:18;23.23;;;14.77;;
13704;SDS011;6924;52.122;9.952;2023-02-16T01:13:45;23.30;;;15.30;;
13704;SDS011;6924;52.122;9.952;2023-02-16T01:16:15;20.40;;;14.83;;
13704;SDS011;6924;52.122;9.952;2023-02-16T01:18:43;27.10;;;15.13;;
13704;SDS011;6924;52.122;9.952;2023-02-16T01:21:10;30.13;;;17.20;;
13704;SDS011;6924;52.122;9.952;2023-02-16T01:23:36;28.83;;;15.07;;
13704;SDS011;6924;52.122;9.952;2023-02-16T01:26:04;26.23;;;16.07;;
13704;SDS011;6924;52.122;9.952;2023-02-16T01:28:32;26.93;;;15.23;;
13704;SDS011;6924;52.122;9.952;2023-02-16T01:30:59;26.87;;;15.37;;
13704;SDS011;6924;52.122;9.952;2023-02-16T01:33:27;27.73;;;16.10;;
13704;SDS011;6924;52.122;9.952;2023-02-16T01:35:54;32.60;;;17.90;;
13704;SDS011;6924;52.122;9.952;2023-02-16T01:38:23;30.37;;;15.40;;
13704;SDS011;6924;52.122;9.952;2023-02-16T01:40:54;22.37;;;14.83;;
13704;SDS011;6924;52.122;9.952;2023-02-16T01:43:29;30.17;;;16.73;;
13704;SDS011;6924;52.122;9.952;2023-02-16T01:46:10;28.13;;;15.77;;
13704;SDS011;6924;52.122;9.952;2023-02-16T01:48:40;26.40;;;15.20;;
13704;SDS011;6924;52.122;9.952;2023-02-16T01:51:11;25.67;;;16.50;;
13704;SDS011;6924;52.122;9.952;2023-02-16T01:53:45;29.57;;;16.90;;
13704;SDS011;6924;52.122;9.952;2023-02-16T01:56:18;30.33;;;17.47;;
13704;SDS011;6924;52.122;9.952;2023-02-16T01:58:54;28.97;;;16.13;;
13704;SDS011;6924;52.122;9.952;2023-02-16T02:01:40;31.30;;;15.70;;
13704;SDS011;6924;52.122;9.952;2023-02-16T02:04:15;24.77;;;15.63;;
13704;SDS011;6924;52.122;9.952;2023-02-16T02:07:04;27.10;;;15.87;;
13704;SDS011;6924;52.122;9.952;2023-02-16T02:09:34;29.07;;;16.77;;
13704;SDS011;6924;52.122;9.952;2023-02-16T02:12:05;29.90;;;16.83;;
13704;SDS011;6924;52.122;9.952;2023-02-16T02:14:39;26.80;;;15.10;;
13704;SDS011;6924;52.122;9.952;2023-02-16T02:17:07;30.20;;;15.40;;
13704;SDS011;6924;52.122;9.952;2023-02-16T02:19:40;33.87;;;17.53;;
13704;SDS011;6924;52.122;9.952;2023-02-16T02:22:27;31.67;;;18.10;;
13704;SDS011;6924;52.122;9.952;2023-02-16T02:25:46;25.97;;;15.60;;
13704;SDS011;6924;52.122;9.952;2023-02-16T02:28:52;26.73;;;15.53;;
13704;SDS011;6924;52.122;9.952;2023-02-16T02:31:30;31.47;;;18.10;;
13704;SDS011;6924;52.122;9.952;2023-02-16T02:34:12;30.67;;;16.53;;
13704;SDS011;6924;52.122;9.952;2023-02-16T02:36:48;25.93;;;15.00;;
13704;SDS011;6924;52.122;9.952;2023-02-16T02:39:25;27.50;;;16.53;;
13704;SDS011;6924;52.122;9.952;2023-02-16T02:42:01;28.43;;;17.67;;
13704;SDS011;6924;52.122;9.952;2023-02-16T02:44:35;28.87;;;16.80;;
13704;SDS011;6924;52.122;9.952;2023-02-16T02:47:04;32.70;;;17.00;;
13704;SDS011;6924;52.122;9.952;2023-02-16T02:49:31;30.97;;;16.60;;
13704;SDS011;6924;52.122;9.952;2023-02-16T02:51:57;28.90;;;16.57;;
13704;SDS011;6924;52.122;9.952;2023-02-16T02:54:25;29.10;;;18.13;;
13704;SDS011;6924;52.122;9.952;2023-02-16T02:57:13;31.87;;;17.33;;
13704;SDS011;6924;52.122;9.952;2023-02-16T03:00:04;31.53;;;17.47;;
13704;SDS011;6924;52.122;9.952;2023-02-16T03:02:50;24.77;;;16.37;;
13704;SDS011;6924;52.122;9.952;2023-02-16T03:05:20;29.43;;;17.07;;
13704;SDS011;6924;52.122;9.952;2023-02-16T03:07:48;32.90;;;17.23;;
13704;SDS011;6924;52.122;9.952;2023-02-16T03:10:21;33.87;;;17.80;;
13704;SDS011;6924;52.122;9.952;2023-02-16T03:13:10;31.10;;;17.80;;
13704;SDS011;6924;52.122;9.952;2023-02-16T03:15:39;27.87;;;16.37;;
13704;SDS011;6924;52.122;9.952;2023-02-16T03:18:06;37.57;;;18.47;;
13704;SDS011;6924;52.122;9.952;2023-02-16T03:20:53;37.70;;;19.43;;
13704;SDS011;6924;52.122;9.952;2023-02-16T03:23:39;31.90;;;17.13;;
13704;SDS011;6924;52.122;9.952;2023-02-16T03:26:25;27.77;;;17.40;;
13704;SDS011;6924;52.122;9.952;2023-02-16T03:29:10;34.83;;;18.20;;
13704;SDS011;6924;52.122;9.952;2023-02-16T03:31:52;37.23;;;18.73;;
13704;SDS011;6924;52.122;9.952;2023-02-16T03:34:21;43.93;;;18.30;;
13704;SDS011;6924;52.122;9.952;2023-02-16T03:36:50;31.17;;;17.93;;
13704;SDS011;6924;52.122;9.952;2023-02-16T03:39:22;42.13;;;18.57;;
13704;SDS011;6924;52.122;9.952;2023-02-16T03:41:50;32.27;;;18.50;;
13704;SDS011;6924;52.122;9.952;2023-02-16T03:44:17;44.20;;;25.93;;
13704;SDS011;6924;52.122;9.952;2023-02-16T03:46:44;36.07;;;19.97;;
13704;SDS011;6924;52.122;9.952;2023-02-16T03:49:14;38.13;;;18.53;;
13704;SDS011;6924;52.122;9.952;2023-02-16T03:51:41;28.10;;;18.10;;
13704;SDS011;6924;52.122;9.952;2023-02-16T03:54:08;32.93;;;18.10;;
13704;SDS011;6924;52.122;9.952;2023-02-16T03:56:34;38.70;;;20.37;;
13704;SDS011;6924;52.122;9.952;2023-02-16T03:59:01;33.23;;;18.03;;
13704;SDS011;6924;52.122;9.952;2023-02-16T04:01:27;37.53;;;19.17;;
13704;SDS011;6924;52.122;9.952;2023-02-16T04:03:54;33.97;;;18.53;;
13704;SDS011;6924;52.122;9.952;2023-02-16T04:06:21;44.17;;;19.43;;
13704;SDS011;6924;52.122;9.952;2023-02-16T04:08:48;35.53;;;18.90;;
13704;SDS011;6924;52.122;9.952;2023-02-16T04:11:14;37.97;;;20.33;;
13704;SDS011;6924;52.122;9.952;2023-02-16T04:13:59;34.10;;;17.53;;
13704;SDS011;6924;52.122;9.952;2023-02-16T04:16:25;31.57;;;17.33;;
13704;SDS011;6924;52.122;9.952;2023-02-16T04:18:51;34.70;;;18.80;;
13704;SDS011;6924;52.122;9.952;2023-02-16T04:21:18;44.53;;;18.23;;
13704;SDS011;6924;52.122;9.952;2023-02-16T04:23:46;37.63;;;19.17;;
13704;SDS011;6924;52.122;9.952;2023-02-16T04:26:12;31.50;;;18.83;;
13704;SDS011;6924;52.122;9.952;2023-02-16T04:28:38;40.70;;;19.70;;
13704;SDS011;6924;52.122;9.952;2023-02-16T04:31:05;31.07;;;18.37;;
13704;SDS011;6924;52.122;9.952;2023-02-16T04:33:31;35.80;;;19.27;;
13704;SDS011;6924;52.122;9.952;2023-02-16T04:35:57;37.27;;;19.47;;
13704;SDS011;6924;52.122;9.952;2023-02-16T04:38:24;31.03;;;16.60;;
13704;SDS011;6924;52.122;9.952;2023-02-16T04:40:52;37.30;;;17.90;;
13704;SDS011;6924;52.122;9.952;2023-02-16T04:43:18;36.57;;;19.30;;
13704;SDS011;6924;52.122;9.952;2023-02-16T04:45:45;36.93;;;17.73;;
13704;SDS011;6924;52.122;9.952;2023-02-16T04:48:11;38.13;;;18.23;;
13704;SDS011;6924;52.122;9.952;2023-02-16T04:50:38;33.27;;;18.03;;
13704;SDS011;6924;52.122;9.952;2023-02-16T04:53:04;31.90;;;16.93;;
13704;SDS011;6924;52.122;9.952;2023-02-16T04:55:32;34.63;;;17.83;;
13704;SDS011;6924;52.122;9.952;2023-02-16T04:57:59;30.07;;;18.13;;
13704;SDS011;6924;52.122;9.952;2023-02-16T05:00:26;42.73;;;18.37;;
13704;SDS011;6924;52.122;9.952;2023-02-16T05:02:52;39.37;;;18.10;;
13704;SDS011;6924;52.122;9.952;2023-02-16T05:05:19;34.83;;;19.40;;
13704;SDS011;6924;52.122;9.952;2023-02-16T05:07:45;35.97;;;18.63;;
13704;SDS011;6924;52.122;9.952;2023-02-16T05:10:11;31.47;;;17.93;;
13704;SDS011;6924;52.122;9.952;2023-02-16T05:12:38;41.27;;;19.87;;
13704;SDS011;6924;52.122;9.952;2023-02-16T05:15:23;40.20;;;18.17;;
13704;SDS011;6924;52.122;9.952;2023-02-16T05:17:49;36.33;;;18.27;;
13704;SDS011;6924;52.122;9.952;2023-02-16T05:20:16;35.47;;;18.20;;
13704;SDS011;6924;52.122;9.952;2023-02-16T05:22:42;32.33;;;17.83;;
13704;SDS011;6924;52.122;9.952;2023-02-16T05:25:10;30.87;;;17.57;;
13704;SDS011;6924;52.122;9.952;2023-02-16T05:27:36;31.43;;;17.60;;
13704;SDS011;6924;52.122;9.952;2023-02-16T05:30:03;30.67;;;17.63;;
13704;SDS011;6924;52.122;9.952;2023-02-16T05:32:32;39.33;;;19.13;;
13704;SDS011;6924;52.122;9.952;2023-02-16T05:34:58;27.03;;;16.40;;
13704;SDS011;6924;52.122;9.952;2023-02-16T05:37:25;33.37;;;18.47;;
13704;SDS011;6924;52.122;9.952;2023-02-16T05:39:51;33.70;;;17.80;;
13704;SDS011;6924;52.122;9.952;2023-02-16T05:42:17;44.67;;;17.20;;
13704;SDS011;6924;52.122;9.952;2023-02-16T05:44:44;38.53;;;19.70;;
13704;SDS011;6924;52.122;9.952;2023-02-16T05:47:10;34.10;;;17.83;;
13704;SDS011;6924;52.122;9.952;2023-02-16T05:49:38;31.97;;;17.17;;
13704;SDS011;6924;52.122;9.952;2023-02-16T05:52:04;35.33;;;17.33;;
13704;SDS011;6924;52.122;9.952;2023-02-16T05:54:31;37.67;;;17.67;;
13704;SDS011;6924;52.122;9.952;2023-02-16T05:56:57;38.13;;;17.63;;
13704;SDS011;6924;52.122;9.952;2023-02-16T05:59:24;33.50;;;18.50;;
13704;SDS011;6924;52.122;9.952;2023-02-16T06:01:50;33.17;;;17.87;;
13704;SDS011;6924;52.122;9.952;2023-02-16T06:04:16;28.20;;;17.30;;
13704;SDS011;6924;52.122;9.952;2023-02-16T06:06:45;32.63;;;17.57;;
13704;SDS011;6924;52.122;9.952;2023-02-16T06:09:11;34.50;;;18.73;;
13704;SDS011;6924;52.122;9.952;2023-02-16T06:11:37;44.00;;;19.13;;
13704;SDS011;6924;52.122;9.952;2023-02-16T06:14:05;37.07;;;18.00;;
13704;SDS011;6924;52.122;9.952;2023-02-16T06:16:34;38.30;;;18.97;;
13704;SDS011;6924;52.122;9.952;2023-02-16T06:19:02;37.80;;;17.73;;
13704;SDS011;6924;52.122;9.952;2023-02-16T06:21:29;39.67;;;18.87;;
13704;SDS011;6924;52.122;9.952;2023-02-16T06:23:58;34.20;;;18.33;;
13704;SDS011;6924;52.122;9.952;2023-02-16T06:26:25;30.43;;;18.13;;
13704;SDS011;6924;52.122;9.952;2023-02-16T06:28:52;35.63;;;18.10;;
13704;SDS011;6924;52.122;9.952;2023-02-16T06:31:19;36.70;;;18.53;;
13704;SDS011;6924;52.122;9.952;2023-02-16T06:33:46;33.30;;;17.13;;
13704;SDS011;6924;52.122;9.952;2023-02-16T06:36:12;35.53;;;18.27;;
13704;SDS011;6924;52.122;9.952;2023-02-16T06:38:39;31.87;;;18.10;;
13704;SDS011;6924;52.122;9.952;2023-02-16T06:41:07;31.13;;;17.57;;
13704;SDS011;6924;52.122;9.952;2023-02-16T06:43:34;35.93;;;17.57;;
13704;SDS011;6924;52.122;9.952;2023-02-16T06:46:00;33.90;;;18.30;;
13704;SDS011;6924;52.122;9.952;2023-02-16T06:48:27;35.20;;;17.80;;
13704;SDS011;6924;52.122;9.952;2023-02-16T06:50:54;31.97;;;17.70;;
13704;SDS011;6924;52.122;9.952;2023-02-16T06:53:20;39.40;;;19.40;;
13704;SDS011;6924;52.122;9.952;2023-02-16T06:55:48;25.30;;;16.10;;
13704;SDS011;6924;52.122;9.952;2023-02-16T06:58:17;38.17;;;19.67;;
13704;SDS011;6924;52.122;9.952;2023-02-16T07:00:43;36.00;;;17.23;;
13704;SDS011;6924;52.122;9.952;2023-02-16T07:03:09;30.97;;;17.97;;
13704;SDS011;6924;52.122;9.952;2023-02-16T07:05:36;35.70;;;18.73;;
13704;SDS011;6924;52.122;9.952;2023-02-16T07:08:03;34.73;;;17.00;;
13704;SDS011;6924;52.122;9.952;2023-02-16T07:10:29;31.87;;;17.27;;
13704;SDS011;6924;52.122;9.952;2023-02-16T07:12:56;32.33;;;16.90;;
13704;SDS011;6924;52.122;9.952;2023-02-16T07:15:23;29.00;;;16.17;;
13704;SDS011;6924;52.122;9.952;2023-02-16T07:17:50;27.43;;;16.30;;
13704;SDS011;6924;52.122;9.952;2023-02-16T07:20:16;25.73;;;16.53;;
13704;SDS011;6924;52.122;9.952;2023-02-16T07:22:43;30.50;;;16.47;;
13704;SDS011;6924;52.122;9.952;2023-02-16T07:25:09;24.77;;;15.33;;
13704;SDS011;6924;52.122;9.952;2023-02-16T07:27:36;26.63;;;15.43;;
13704;SDS011;6924;52.122;9.952;2023-02-16T07:30:02;30.27;;;16.50;;
13704;SDS011;6924;52.122;9.952;2023-02-16T07:32:30;22.20;;;15.30;;
13704;SDS011;6924;52.122;9.952;2023-02-16T07:34:56;28.47;;;16.13;;
13704;SDS011;6924;52.122;9.952;2023-02-16T07:37:23;29.67;;;16.07;;
13704;SDS011;6924;52.122;9.952;2023-02-16T07:39:49;26.47;;;15.70;;
13704;SDS011;6924;52.122;9.952;2023-02-16T07:42:17;29.13;;;15.70;;
13704;SDS011;6924;52.122;9.952;2023-02-16T07:44:43;28.20;;;15.50;;
13704;SDS011;6924;52.122;9.952;2023-02-16T07:47:09;19.87;;;15.73;;
13704;SDS011;6924;52.122;9.952;2023-02-16T07:49:38;32.23;;;15.50;;
13704;SDS011;6924;52.122;9.952;2023-02-16T07:52:05;28.03;;;14.93;;
13704;SDS011;6924;52.122;9.952;2023-02-16T07:54:31;30.00;;;16.17;;
13704;SDS011;6924;52.122;9.952;2023-02-16T07:56:58;29.77;;;16.23;;
13704;SDS011;6924;52.122;9.952;2023-02-16T07:59:25;28.20;;;16.13;;
13704;SDS011;6924;52.122;9.952;2023-02-16T08:01:51;25.83;;;15.23;;
13704;SDS011;6924;52.122;9.952;2023-02-16T08:04:17;23.47;;;14.77;;
13704;SDS011;6924;52.122;9.952;2023-02-16T08:06:45;24.47;;;14.67;;
13704;SDS011;6924;52.122;9.952;2023-02-16T08:09:12;24.40;;;14.47;;
13704;SDS011;6924;52.122;9.952;2023-02-16T08:11:39;21.03;;;14.50;;
13704;SDS011;6924;52.122;9.952;2023-02-16T08:14:05;32.03;;;16.07;;
13704;SDS011;6924;52.122;9.952;2023-02-16T08:16:32;25.97;;;14.27;;
13704;SDS011;6924;52.122;9.952;2023-02-16T08:18:59;27.37;;;15.43;;
13704;SDS011;6924;52.122;9.952;2023-02-16T08:21:28;23.03;;;14.50;;
13704;SDS011;6924;52.122;9.952;2023-02-16T08:23:58;25.80;;;15.03;;
13704;SDS011;6924;52.122;9.952;2023-02-16T08:26:26;24.13;;;14.93;;
13704;SDS011;6924;52.122;9.952;2023-02-16T08:28:55;18.90;;;13.70;;
13704;SDS011;6924;52.122;9.952;2023-02-16T08:31:23;25.70;;;14.43;;
13704;SDS011;6924;52.122;9.952;2023-02-16T08:33:52;21.73;;;14.07;;
13704;SDS011;6924;52.122;9.952;2023-02-16T08:36:19;20.13;;;14.17;;
13704;SDS011;6924;52.122;9.952;2023-02-16T08:38:58;24.70;;;14.57;;
13704;SDS011;6924;52.122;9.952;2023-02-16T08:41:27;18.90;;;13.57;;
13704;SDS011;6924;52.122;9.952;2023-02-16T08:43:55;23.03;;;15.43;;
13704;SDS011;6924;52.122;9.952;2023-02-16T08:46:22;24.37;;;14.37;;
13704;SDS011;6924;52.122;9.952;2023-02-16T08:48:49;21.10;;;15.03;;
13704;SDS011;6924;52.122;9.952;2023-02-16T08:51:16;24.90;;;15.03;;
13704;SDS011;6924;52.122;9.952;2023-02-16T08:53:43;24.73;;;14.73;;
13704;SDS011;6924;52.122;9.952;2023-02-16T08:56:12;23.60;;;15.33;;
13704;SDS011;6924;52.122;9.952;2023-02-16T08:58:40;27.20;;;16.13;;
13704;SDS011;6924;52.122;9.952;2023-02-16T09:01:07;25.00;;;15.23;;
13704;SDS011;6924;52.122;9.952;2023-02-16T09:03:35;26.63;;;14.83;;
13704;SDS011;6924;52.122;9.952;2023-02-16T09:06:05;20.17;;;13.10;;
13704;SDS011;6924;52.122;9.952;2023-02-16T09:08:31;21.03;;;14.13;;
13704;SDS011;6924;52.122;9.952;2023-02-16T09:11:01;23.20;;;14.23;;
13704;SDS011;6924;52.122;9.952;2023-02-16T09:13:29;20.87;;;13.77;;
13704;SDS011;6924;52.122;9.952;2023-02-16T09:16:00;21.20;;;14.20;;
13704;SDS011;6924;52.122;9.952;2023-02-16T09:18:27;24.00;;;14.93;;
13704;SDS011;6924;52.122;9.952;2023-02-16T09:20:53;22.40;;;13.43;;
13704;SDS011;6924;52.122;9.952;2023-02-16T09:23:21;24.40;;;14.97;;
13704;SDS011;6924;52.122;9.952;2023-02-16T09:25:47;20.40;;;14.47;;
13704;SDS011;6924;52.122;9.952;2023-02-16T09:28:14;20.13;;;14.07;;
13704;SDS011;6924;52.122;9.952;2023-02-16T09:30:42;19.63;;;13.20;;
13704;SDS011;6924;52.122;9.952;2023-02-16T09:33:08;22.83;;;13.53;;
13704;SDS011;6924;52.122;9.952;2023-02-16T09:35:36;19.63;;;14.27;;
13704;SDS011;6924;52.122;9.952;2023-02-16T09:38:03;22.50;;;14.53;;
13704;SDS011;6924;52.122;9.952;2023-02-16T09:40:31;21.73;;;14.50;;
13704;SDS011;6924;52.122;9.952;2023-02-16T09:43:01;23.73;;;14.53;;
13704;SDS011;6924;52.122;9.952;2023-02-16T09:45:34;23.90;;;13.63;;
13704;SDS011;6924;52.122;9.952;2023-02-16T09:48:08;22.87;;;13.73;;
13704;SDS011;6924;52.122;9.952;2023-02-16T09:50:46;24.03;;;14.30;;
13704;SDS011;6924;52.122;9.952;2023-02-16T09:53:19;18.77;;;13.73;;
13704;SDS011;6924;52.122;9.952;2023-02-16T09:55:51;18.27;;;13.87;;
13704;SDS011;6924;52.122;9.952;2023-02-16T09:58:24;21.43;;;14.13;;
13704;SDS011;6924;52.122;9.952;2023-02-16T10:00:56;27.27;;;14.50;;
13704;SDS011;6924;52.122;9.952;2023-02-16T10:03:44;18.30;;;15.00;;
13704;SDS011;6924;52.122;9.952;2023-02-16T10:06:26;19.00;;;13.87;;
13704;SDS011;6924;52.122;9.952;2023-02-16T10:08:58;23.27;;;14.77;;
13704;SDS011;6924;52.122;9.952;2023-02-16T10:11:31;18.90;;;14.07;;
13704;SDS011;6924;52.122;9.952;2023-02-16T10:14:06;21.93;;;13.30;;
13704;SDS011;6924;52.122;9.952;2023-02-16T10:16:41;22.80;;;14.17;;
13704;SDS011;6924;52.122;9.952;2023-02-16T10:19:16;26.23;;;16.07;;
13704;SDS011;6924;52.122;9.952;2023-02-16T10:21:48;18.97;;;14.73;;
13704;SDS011;6924;52.122;9.952;2023-02-16T10:24:18;19.57;;;13.43;;
13704;SDS011;6924;52.122;9.952;2023-02-16T10:26:45;19.17;;;14.00;;
13704;SDS011;6924;52.122;9.952;2023-02-16T10:29:16;19.50;;;13.37;;
13704;SDS011;6924;52.122;9.952;2023-02-16T10:31:47;20.77;;;14.00;;
13704;SDS011;6924;52.122;9.952;2023-02-16T10:34:26;27.30;;;15.37;;
13704;SDS011;6924;52.122;9.952;2023-02-16T10:37:12;14.87;;;12.40;;
13704;SDS011;6924;52.122;9.952;2023-02-16T10:39:49;20.53;;;15.03;;
13704;SDS011;6924;52.122;9.952;2023-02-16T10:42:25;16.20;;;13.10;;
13704;SDS011;6924;52.122;9.952;2023-02-16T10:45:01;18.53;;;14.17;;
13704;SDS011;6924;52.122;9.952;2023-02-16T10:47:40;17.43;;;13.37;;
13704;SDS011;6924;52.122;9.952;2023-02-16T10:50:14;19.50;;;14.40;;
13704;SDS011;6924;52.122;9.952;2023-02-16T10:52:46;17.30;;;13.90;;
13704;SDS011;6924;52.122;9.952;2023-02-16T10:55:14;16.17;;;13.77;;
13704;SDS011;6924;52.122;9.952;2023-02-16T10:57:41;21.10;;;15.23;;
13704;SDS011;6924;52.122;9.952;2023-02-16T11:00:09;16.70;;;13.50;;
13704;SDS011;6924;52.122;9.952;2023-02-16T11:02:42;21.50;;;14.13;;
13704;SDS011;6924;52.122;9.952;2023-02-16T11:08:05;20.33;;;13.63;;
13704;SDS011;6924;52.122;9.952;2023-02-16T11:10:36;16.63;;;12.70;;
13704;SDS011;6924;52.122;9.952;2023-02-16T11:13:06;19.13;;;13.43;;
13704;SDS011;6924;52.122;9.952;2023-02-16T11:15:34;18.37;;;13.53;;
13704;SDS011;6924;52.122;9.952;2023-02-16T11:18:03;15.87;;;12.93;;
13704;SDS011;6924;52.122;9.952;2023-02-16T11:20:33;20.50;;;13.20;;
13704;SDS011;6924;52.122;9.952;2023-02-16T11:23:21;17.93;;;12.90;;
13704;SDS011;6924;52.122;9.952;2023-02-16T11:25:55;16.40;;;13.23;;
13704;SDS011;6924;52.122;9.952;2023-02-16T11:28:24;16.23;;;13.17;;
13704;SDS011;6924;52.122;9.952;2023-02-16T11:30:57;17.13;;;13.50;;
13704;SDS011;6924;52.122;9.952;2023-02-16T11:33:26;16.00;;;12.90;;
13704;SDS011;6924;52.122;9.952;2023-02-16T11:35:53;17.57;;;12.73;;
13704;SDS011;6924;52.122;9.952;2023-02-16T11:38:31;16.47;;;13.17;;
13704;SDS011;6924;52.122;9.952;2023-02-16T11:40:59;18.13;;;12.97;;
13704;SDS011;6924;52.122;9.952;2023-02-16T11:43:28;19.37;;;12.87;;
13704;SDS011;6924;52.122;9.952;2023-02-16T11:45:58;16.53;;;11.90;;
13704;SDS011;6924;52.122;9.952;2023-02-16T11:48:28;18.40;;;13.50;;
13704;SDS011;6924;52.122;9.952;2023-02-16T11:50:57;13.73;;;12.10;;
13704;SDS011;6924;52.122;9.952;2023-02-16T11:53:28;18.20;;;12.77;;
13704;SDS011;6924;52.122;9.952;2023-02-16T11:56:13;16.93;;;13.30;;
13704;SDS011;6924;52.122;9.952;2023-02-16T11:58:54;17.40;;;12.70;;
13704;SDS011;6924;52.122;9.952;2023-02-16T12:01:31;14.80;;;12.03;;
13704;SDS011;6924;52.122;9.952;2023-02-16T12:04:11;16.10;;;12.50;;
13704;SDS011;6924;52.122;9.952;2023-02-16T12:06:55;16.70;;;11.63;;
13704;SDS011;6924;52.122;9.952;2023-02-16T12:09:33;16.13;;;12.30;;
13704;SDS011;6924;52.122;9.952;2023-02-16T12:12:11;14.13;;;11.90;;
13704;SDS011;6924;52.122;9.952;2023-02-16T12:14:41;13.83;;;11.70;;
13704;SDS011;6924;52.122;9.952;2023-02-16T12:17:20;15.77;;;12.63;;
13704;SDS011;6924;52.122;9.952;2023-02-16T12:19:59;17.67;;;13.30;;
13704;SDS011;6924;52.122;9.952;2023-02-16T12:22:37;14.90;;;12.27;;
13704;SDS011;6924;52.122;9.952;2023-02-16T12:25:15;15.37;;;12.57;;
13704;SDS011;6924;52.122;9.952;2023-02-16T12:27:53;17.43;;;13.50;;
13704;SDS011;6924;52.122;9.952;2023-02-16T12:30:29;14.20;;;12.20;;
13704;SDS011;6924;52.122;9.952;2023-02-16T12:33:07;16.70;;;12.73;;
13704;SDS011;6924;52.122;9.952;2023-02-16T12:35:55;15.43;;;11.23;;
13704;SDS011;6924;52.122;9.952;2023-02-16T12:38:33;13.97;;;12.07;;
13704;SDS011;6924;52.122;9.952;2023-02-16T12:41:17;15.47;;;12.67;;
13704;SDS011;6924;52.122;9.952;2023-02-16T12:43:55;14.97;;;11.87;;
13704;SDS011;6924;52.122;9.952;2023-02-16T12:46:26;13.63;;;11.43;;
13704;SDS011;6924;52.122;9.952;2023-02-16T12:48:57;13.40;;;12.00;;
13704;SDS011;6924;52.122;9.952;2023-02-16T12:51:29;16.53;;;12.73;;
13704;SDS011;6924;52.122;9.952;2023-02-16T12:54:01;12.43;;;10.73;;
13704;SDS011;6924;52.122;9.952;2023-02-16T12:56:35;12.17;;;10.87;;
13704;SDS011;6924;52.122;9.952;2023-02-16T12:59:12;12.93;;;11.53;;
13704;SDS011;6924;52.122;9.952;2023-02-16T13:01:42;13.87;;;11.13;;
13704;SDS011;6924;52.122;9.952;2023-02-16T13:04:14;13.03;;;11.63;;
13704;SDS011;6924;52.122;9.952;2023-02-16T13:06:45;17.07;;;11.67;;
13704;SDS011;6924;52.122;9.952;2023-02-16T13:09:22;14.37;;;12.43;;
13704;SDS011;6924;52.122;9.952;2023-02-16T13:11:59;11.97;;;10.60;;
13704;SDS011;6924;52.122;9.952;2023-02-16T13:14:31;13.30;;;11.30;;
13704;SDS011;6924;52.122;9.952;2023-02-16T13:17:01;13.63;;;12.13;;
13704;SDS011;6924;52.122;9.952;2023-02-16T13:19:33;13.73;;;11.57;;
13704;SDS011;6924;52.122;9.952;2023-02-16T13:22:12;12.30;;;11.00;;
13704;SDS011;6924;52.122;9.952;2023-02-16T13:24:55;13.50;;;12.10;;
13704;SDS011;6924;52.122;9.952;2023-02-16T13:27:35;13.23;;;11.93;;
13704;SDS011;6924;52.122;9.952;2023-02-16T13:33:25;15.40;;;11.83;;
13704;SDS011;6924;52.122;9.952;2023-02-16T13:36:19;12.70;;;11.10;;
13704;SDS011;6924;52.122;9.952;2023-02-16T13:41:58;15.63;;;11.30;;
13704;SDS011;6924;52.122;9.952;2023-02-16T13:44:33;12.83;;;10.87;;
13704;SDS011;6924;52.122;9.952;2023-02-16T13:47:04;12.33;;;11.03;;
13704;SDS011;6924;52.122;9.952;2023-02-16T13:49:33;13.30;;;11.13;;
13704;SDS011;6924;52.122;9.952;2023-02-16T13:52:02;12.50;;;10.73;;
13704;SDS011;6924;52.122;9.952;2023-02-16T13:54:31;13.20;;;11.80;;
13704;SDS011;6924;52.122;9.952;2023-02-16T13:56:59;18.33;;;11.70;;
13704;SDS011;6924;52.122;9.952;2023-02-16T14:05:22;12.70;;;10.33;;
13704;SDS011;6924;52.122;9.952;2023-02-16T14:13:33;13.47;;;11.00;;
13704;SDS011;6924;52.122;9.952;2023-02-16T14:16:10;11.83;;;10.63;;
13704;SDS011;6924;52.122;9.952;2023-02-16T14:18:54;12.33;;;10.87;;
13704;SDS011;6924;52.122;9.952;2023-02-16T14:21:24;12.40;;;10.87;;
13704;SDS011;6924;52.122;9.952;2023-02-16T14:23:56;12.30;;;11.00;;
13704;SDS011;6924;52.122;9.952;2023-02-16T14:26:24;12.90;;;11.20;;
13704;SDS011;6924;52.122;9.952;2023-02-16T14:31:46;15.67;;;11.67;;
13704;SDS011;6924;52.122;9.952;2023-02-16T14:34:21;12.80;;;10.70;;
13704;SDS011;6924;52.122;9.952;2023-02-16T14:39:53;12.10;;;10.43;;
13704;SDS011;6924;52.122;9.952;2023-02-16T14:42:23;13.03;;;10.07;;
13704;SDS011;6924;52.122;9.952;2023-02-16T14:44:54;14.67;;;11.53;;
13704;SDS011;6924;52.122;9.952;2023-02-16T14:47:33;12.43;;;11.10;;
13704;SDS011;6924;52.122;9.952;2023-02-16T14:50:14;14.67;;;11.30;;
13704;SDS011;6924;52.122;9.952;2023-02-16T14:56:00;15.03;;;9.43;;
13704;SDS011;6924;52.122;9.952;2023-02-16T14:58:43;11.17;;;10.07;;
13704;SDS011;6924;52.122;9.952;2023-02-16T15:01:17;13.33;;;10.70;;
13704;SDS011;6924;52.122;9.952;2023-02-16T15:03:45;12.33;;;9.80;;
13704;SDS011;6924;52.122;9.952;2023-02-16T15:06:18;12.93;;;10.63;;
13704;SDS011;6924;52.122;9.952;2023-02-16T15:08:50;12.93;;;11.13;;
13704;SDS011;6924;52.122;9.952;2023-02-16T15:11:22;12.90;;;9.43;;
13704;SDS011;6924;52.122;9.952;2023-02-16T15:14:00;12.20;;;10.77;;
13704;SDS011;6924;52.122;9.952;2023-02-16T15:16:28;13.87;;;10.70;;
13704;SDS011;6924;52.122;9.952;2023-02-16T15:19:06;15.07;;;11.03;;
13704;SDS011;6924;52.122;9.952;2023-02-16T15:21:37;13.67;;;10.80;;
13704;SDS011;6924;52.122;9.952;2023-02-16T15:24:04;13.37;;;10.73;;
13704;SDS011;6924;52.122;9.952;2023-02-16T15:26:33;12.30;;;9.70;;
13704;SDS011;6924;52.122;9.952;2023-02-16T15:29:10;15.13;;;9.90;;